createdAt,value
2019-05-16T00:00:54.868Z,1017.43
2019-05-16T00:01:54.866Z,1017.38
2019-05-16T00:02:54.876Z,1017.36
2019-05-16T00:03:54.848Z,1017.41
2019-05-16T00:04:54.851Z,1017.31
2019-05-16T00:05:54.830Z,1017.42
2019-05-16T00:06:54.844Z,1017.35
2019-05-16T00:07:54.794Z,1017.42
2019-05-16T00:08:54.788Z,1017.38
2019-05-16T00:09:54.778Z,1017.37
2019-05-16T00:10:54.763Z,1017.35
2019-05-16T00:11:54.750Z,1017.29
2019-05-16T00:12:54.765Z,1017.37
2019-05-16T00:13:54.728Z,1017.41
2019-05-16T00:14:54.713Z,1017.35
2019-05-16T00:15:54.705Z,1017.31
2019-05-16T00:16:54.693Z,1017.37
2019-05-16T00:17:54.723Z,1017.31
2019-05-16T00:18:54.674Z,1017.41
2019-05-16T00:19:54.665Z,1017.37
2019-05-16T00:20:54.657Z,1017.41
2019-05-16T00:21:54.647Z,1017.38
2019-05-16T00:22:54.654Z,1017.44
2019-05-16T00:23:54.658Z,1017.37
2019-05-16T00:24:54.607Z,1017.31
2019-05-16T00:25:54.605Z,1017.39
2019-05-16T00:26:54.585Z,1017.42
2019-05-16T00:27:54.586Z,1017.45
2019-05-16T00:28:54.599Z,1017.38
2019-05-16T00:29:54.554Z,1017.39
2019-05-16T00:30:54.543Z,1017.40
2019-05-16T00:31:54.535Z,1017.41
2019-05-16T00:32:54.526Z,1017.42
2019-05-16T00:33:54.624Z,1017.41
2019-05-16T00:34:54.500Z,1017.41
2019-05-16T00:36:02.712Z,1017.33
2019-05-16T00:36:55.479Z,1017.38
2019-05-16T00:37:54.481Z,1017.38
2019-05-16T00:38:54.483Z,1017.33
2019-05-16T00:39:54.451Z,1017.32
2019-05-16T00:40:54.439Z,1017.34
2019-05-16T00:41:54.424Z,1017.29
2019-05-16T00:42:54.417Z,1017.21
2019-05-16T00:43:54.446Z,1017.18
2019-05-16T00:44:54.396Z,1017.21
2019-05-16T00:45:54.386Z,1017.25
2019-05-16T00:46:54.399Z,1017.22
2019-05-16T00:47:54.363Z,1017.22
2019-05-16T00:48:54.384Z,1017.19
2019-05-16T00:49:54.367Z,1017.16
2019-05-16T00:50:54.329Z,1017.17
2019-05-16T00:51:54.316Z,1017.17
2019-05-16T00:52:54.304Z,1017.13
2019-05-16T00:53:54.327Z,1017.12
2019-05-16T00:54:54.290Z,1017.16
2019-05-16T00:55:54.274Z,1017.14
2019-05-16T00:56:54.264Z,1017.07
2019-05-16T00:57:54.251Z,1017.13
2019-05-16T00:58:54.242Z,1017.11
2019-05-16T00:59:54.256Z,1017.09
2019-05-16T01:00:54.226Z,1017.08
2019-05-16T01:01:54.223Z,1017.07
2019-05-16T01:02:54.204Z,1017.09
2019-05-16T01:03:54.186Z,1017.10
2019-05-16T01:04:54.210Z,1017.01
2019-05-16T01:05:54.172Z,1017.00
2019-05-16T01:06:54.157Z,1017.02
2019-05-16T01:07:54.144Z,1017.00
2019-05-16T01:08:54.140Z,1017.02
2019-05-16T01:09:54.155Z,1016.98
2019-05-16T01:10:54.115Z,1016.96
2019-05-16T01:11:54.104Z,1016.97
2019-05-16T01:12:54.090Z,1016.94
2019-05-16T01:13:54.080Z,1016.95
2019-05-16T01:14:54.102Z,1016.99
2019-05-16T01:15:54.059Z,1016.92
2019-05-16T01:16:54.042Z,1016.91
2019-05-16T01:17:54.040Z,1016.87
2019-05-16T01:18:54.030Z,1016.92
2019-05-16T01:19:54.041Z,1016.88
2019-05-16T01:20:54.006Z,1016.82
2019-05-16T01:21:53.991Z,1016.83
2019-05-16T01:22:53.993Z,1016.75
2019-05-16T01:23:53.970Z,1016.76
2019-05-16T01:24:53.993Z,1016.79
2019-05-16T01:25:53.956Z,1016.81
2019-05-16T01:26:53.942Z,1016.79
2019-05-16T01:27:53.939Z,1016.72
2019-05-16T01:28:53.922Z,1016.71
2019-05-16T01:29:53.931Z,1016.67
2019-05-16T01:30:53.895Z,1016.74
2019-05-16T01:31:53.886Z,1016.67
2019-05-16T01:32:53.875Z,1016.74
2019-05-16T01:33:53.874Z,1016.75
2019-05-16T01:34:53.882Z,1016.70
2019-05-16T01:35:53.855Z,1016.69
2019-05-16T01:36:53.833Z,1016.74
2019-05-16T01:37:53.819Z,1016.72
2019-05-16T01:38:53.812Z,1016.80
2019-05-16T01:39:53.832Z,1016.77
2019-05-16T01:40:53.789Z,1016.73
2019-05-16T01:41:53.786Z,1016.77
2019-05-16T01:42:53.773Z,1016.84
2019-05-16T01:43:53.755Z,1016.82
2019-05-16T01:44:53.778Z,1016.78
2019-05-16T01:45:53.735Z,1016.81
2019-05-16T01:46:53.726Z,1016.78
2019-05-16T01:47:53.720Z,1016.78
2019-05-16T01:48:53.702Z,1016.71
2019-05-16T01:49:53.715Z,1016.75
2019-05-16T01:50:53.682Z,1016.74
2019-05-16T01:51:53.669Z,1016.73
2019-05-16T01:52:53.666Z,1016.70
2019-05-16T01:53:53.658Z,1016.70
2019-05-16T01:54:53.674Z,1016.69
2019-05-16T01:55:53.623Z,1016.69
2019-05-16T01:56:53.625Z,1016.69
2019-05-16T01:57:53.601Z,1016.69
2019-05-16T01:58:53.594Z,1016.69
2019-05-16T01:59:53.587Z,1016.65
2019-05-16T02:01:06.214Z,1016.67
2019-05-16T02:01:54.559Z,1016.66
2019-05-16T02:02:53.550Z,1016.70
2019-05-16T02:03:53.544Z,1016.68
2019-05-16T02:04:53.530Z,1016.63
2019-05-16T02:05:53.562Z,1016.70
2019-05-16T02:06:54.954Z,1016.65
2019-05-16T02:07:53.500Z,1016.65
2019-05-16T02:08:53.494Z,1016.68
2019-05-16T02:09:53.479Z,1016.68
2019-05-16T02:10:53.491Z,1016.56
2019-05-16T02:11:53.459Z,1016.63
2019-05-16T02:12:53.450Z,1016.63
2019-05-16T02:13:53.431Z,1016.59
2019-05-16T02:14:53.420Z,1016.60
2019-05-16T02:15:53.445Z,1016.60
2019-05-16T02:16:53.400Z,1016.55
2019-05-16T02:17:53.386Z,1016.60
2019-05-16T02:18:53.382Z,1016.58
2019-05-16T02:19:53.367Z,1016.53
2019-05-16T02:20:53.386Z,1016.54
2019-05-16T02:21:53.350Z,1016.49
2019-05-16T02:22:53.335Z,1016.54
2019-05-16T02:23:53.338Z,1016.47
2019-05-16T02:24:53.310Z,1016.45
2019-05-16T02:25:53.345Z,1016.42
2019-05-16T02:26:53.294Z,1016.42
2019-05-16T02:27:53.281Z,1016.39
2019-05-16T02:28:53.276Z,1016.34
2019-05-16T02:29:53.257Z,1016.35
2019-05-16T02:30:53.248Z,1016.32
2019-05-16T02:31:53.267Z,1016.29
2019-05-16T02:32:53.230Z,1016.33
2019-05-16T02:33:53.217Z,1016.28
2019-05-16T02:34:53.207Z,1016.36
2019-05-16T02:35:55.761Z,1016.30
2019-05-16T02:37:17.996Z,1016.30
2019-05-16T02:37:55.377Z,1016.36
2019-05-16T02:38:55.611Z,1016.34
2019-05-16T02:39:54.511Z,1016.34
2019-05-16T02:40:55.210Z,1016.37
2019-05-16T02:41:53.164Z,1016.34
2019-05-16T02:42:56.207Z,1016.31
2019-05-16T02:43:53.119Z,1016.36
2019-05-16T02:44:53.122Z,1016.38
2019-05-16T02:45:53.093Z,1016.28
2019-05-16T02:46:53.099Z,1016.32
2019-05-16T02:47:53.065Z,1016.30
2019-05-16T02:48:53.055Z,1016.30
2019-05-16T02:49:53.045Z,1016.30
2019-05-16T02:50:53.041Z,1016.32
2019-05-16T02:51:53.054Z,1016.30
2019-05-16T02:52:53.020Z,1016.26
2019-05-16T02:53:53.005Z,1016.33
2019-05-16T02:54:52.991Z,1016.30
2019-05-16T02:55:52.999Z,1016.31
2019-05-16T02:56:52.998Z,1016.27
2019-05-16T02:57:52.957Z,1016.28
2019-05-16T02:58:52.954Z,1016.28
2019-05-16T02:59:52.945Z,1016.29
2019-05-16T03:00:52.926Z,1016.26
2019-05-16T03:01:53.045Z,1016.30
2019-05-16T03:02:52.933Z,1016.22
2019-05-16T03:03:52.894Z,1016.26
2019-05-16T03:04:52.886Z,1016.26
2019-05-16T03:05:52.884Z,1016.24
2019-05-16T03:06:52.886Z,1016.24
2019-05-16T03:07:52.850Z,1016.19
2019-05-16T03:08:52.840Z,1016.23
2019-05-16T03:09:52.828Z,1016.17
2019-05-16T03:10:52.841Z,1016.18
2019-05-16T03:11:52.856Z,1016.17
2019-05-16T03:12:52.795Z,1016.15
2019-05-16T03:13:52.787Z,1016.11
2019-05-16T03:14:54.493Z,1016.09
2019-05-16T03:15:52.763Z,1016.09
2019-05-16T03:16:52.788Z,1016.12
2019-05-16T03:17:52.768Z,1016.06
2019-05-16T03:18:52.733Z,1016.07
2019-05-16T03:19:52.729Z,1016.06
2019-05-16T03:20:52.727Z,1016.12
2019-05-16T03:21:52.700Z,1016.03
2019-05-16T03:22:52.760Z,1016.04
2019-05-16T03:23:52.678Z,1016.04
2019-05-16T03:24:52.664Z,1016.05
2019-05-16T03:25:52.655Z,1016.04
2019-05-16T03:26:52.655Z,1016.04
2019-05-16T03:27:52.659Z,1015.96
2019-05-16T03:28:52.622Z,1016.05
2019-05-16T03:29:52.616Z,1015.97
2019-05-16T03:30:54.739Z,1016.02
2019-05-16T03:31:54.233Z,1015.93
2019-05-16T03:32:54.892Z,1015.90
2019-05-16T03:33:58.692Z,1015.89
2019-05-16T03:34:55.013Z,1015.88
2019-05-16T03:35:54.709Z,1015.95
2019-05-16T03:36:54.370Z,1015.88
2019-05-16T03:37:59.647Z,1015.83
2019-05-16T03:38:53.513Z,1015.83
2019-05-16T03:39:52.529Z,1015.87
2019-05-16T03:40:52.509Z,1015.87
2019-05-16T03:41:52.484Z,1015.92
2019-05-16T03:42:52.500Z,1015.95
2019-05-16T03:43:52.462Z,1015.92
2019-05-16T03:44:52.456Z,1015.88
2019-05-16T03:45:52.503Z,1015.84
2019-05-16T03:46:52.432Z,1015.83
2019-05-16T03:47:52.453Z,1015.82
2019-05-16T03:48:52.464Z,1015.84
2019-05-16T03:49:52.396Z,1015.86
2019-05-16T03:50:52.392Z,1015.80
2019-05-16T03:51:52.376Z,1015.79
2019-05-16T03:52:52.410Z,1015.85
2019-05-16T03:53:52.356Z,1015.92
2019-05-16T03:54:52.347Z,1015.87
2019-05-16T03:55:52.338Z,1015.82
2019-05-16T03:56:52.325Z,1015.85
2019-05-16T03:57:52.310Z,1015.91
2019-05-16T03:58:52.329Z,1015.90
2019-05-16T03:59:52.289Z,1015.85
2019-05-16T04:00:54.062Z,1015.86
2019-05-16T04:01:52.277Z,1015.81
2019-05-16T04:02:52.499Z,1015.80
2019-05-16T04:03:52.277Z,1015.80
2019-05-16T04:04:52.237Z,1015.76
2019-05-16T04:05:52.983Z,1015.77
2019-05-16T04:06:52.225Z,1015.77
2019-05-16T04:08:10.000Z,1015.81
2019-05-16T04:08:53.218Z,1015.77
2019-05-16T04:09:52.179Z,1015.80
2019-05-16T04:10:52.688Z,1015.80
2019-05-16T04:11:52.167Z,1015.80
2019-05-16T04:12:52.165Z,1015.79
2019-05-16T04:13:52.177Z,1015.80
2019-05-16T04:14:52.130Z,1015.90
2019-05-16T04:15:53.019Z,1015.78
2019-05-16T04:16:52.106Z,1015.90
2019-05-16T04:17:52.101Z,1015.83
2019-05-16T04:18:52.130Z,1015.88
2019-05-16T04:19:52.093Z,1015.82
2019-05-16T04:20:52.813Z,1015.76
2019-05-16T04:21:52.053Z,1015.86
2019-05-16T04:22:52.054Z,1015.82
2019-05-16T04:23:52.066Z,1015.79
2019-05-16T04:24:52.028Z,1015.73
2019-05-16T04:25:52.831Z,1015.71
2019-05-16T04:26:52.163Z,1015.79
2019-05-16T04:27:51.988Z,1015.78
2019-05-16T04:28:51.981Z,1015.81
2019-05-16T04:29:51.996Z,1015.73
2019-05-16T04:30:51.968Z,1015.77
2019-05-16T04:31:51.954Z,1015.80
2019-05-16T04:32:52.519Z,1015.71
2019-05-16T04:33:52.163Z,1015.74
2019-05-16T04:34:51.940Z,1015.72
2019-05-16T04:35:53.089Z,1015.67
2019-05-16T04:36:51.900Z,1015.70
2019-05-16T04:37:51.881Z,1015.63
2019-05-16T04:38:51.874Z,1015.60
2019-05-16T04:39:51.894Z,1015.59
2019-05-16T04:40:51.938Z,1015.61
2019-05-16T04:41:51.842Z,1015.63
2019-05-16T04:42:51.831Z,1015.64
2019-05-16T04:43:51.815Z,1015.57
2019-05-16T04:44:51.880Z,1015.56
2019-05-16T04:45:52.661Z,1015.58
2019-05-16T04:46:51.793Z,1015.60
2019-05-16T04:47:51.782Z,1015.61
2019-05-16T04:48:51.768Z,1015.58
2019-05-16T04:49:52.144Z,1015.57
2019-05-16T04:50:52.106Z,1015.61
2019-05-16T04:51:52.072Z,1015.61
2019-05-16T04:52:52.061Z,1015.53
2019-05-16T04:53:51.720Z,1015.61
2019-05-16T04:54:51.735Z,1015.60
2019-05-16T04:55:52.358Z,1015.60
2019-05-16T04:56:51.755Z,1015.60
2019-05-16T04:57:51.669Z,1015.58
2019-05-16T04:58:51.746Z,1015.54
2019-05-16T04:59:51.677Z,1015.60
2019-05-16T05:00:52.320Z,1015.61
2019-05-16T05:01:51.629Z,1015.57
2019-05-16T05:02:52.095Z,1015.55
2019-05-16T05:04:06.168Z,1015.54
2019-05-16T05:04:52.626Z,1015.52
2019-05-16T05:05:52.135Z,1015.47
2019-05-16T05:06:55.190Z,1015.55
2019-05-16T05:07:51.555Z,1015.53
2019-05-16T05:08:58.525Z,1015.53
2019-05-16T05:09:52.571Z,1015.53
2019-05-16T05:10:52.040Z,1015.52
2019-05-16T05:11:52.082Z,1015.51
2019-05-16T05:12:51.807Z,1015.56
2019-05-16T05:13:51.498Z,1015.59
2019-05-16T05:14:51.481Z,1015.58
2019-05-16T05:15:51.537Z,1015.53
2019-05-16T05:16:51.481Z,1015.58
2019-05-16T05:17:51.455Z,1015.58
2019-05-16T05:18:51.746Z,1015.60
2019-05-16T05:19:51.427Z,1015.59
2019-05-16T05:20:52.646Z,1015.57
2019-05-16T05:21:51.635Z,1015.63
2019-05-16T05:22:51.397Z,1015.66
2019-05-16T05:23:51.391Z,1015.60
2019-05-16T05:24:51.381Z,1015.60
2019-05-16T05:25:51.825Z,1015.58
2019-05-16T05:26:51.363Z,1015.56
2019-05-16T05:27:51.345Z,1015.54
2019-05-16T05:28:51.334Z,1015.54
2019-05-16T05:29:51.322Z,1015.53
2019-05-16T05:30:51.341Z,1015.56
2019-05-16T05:31:54.998Z,1015.57
2019-05-16T05:32:51.319Z,1015.50
2019-05-16T05:33:51.275Z,1015.55
2019-05-16T05:34:51.267Z,1015.54
2019-05-16T05:35:51.353Z,1015.55
2019-05-16T05:36:51.418Z,1015.54
2019-05-16T05:37:51.245Z,1015.54
2019-05-16T05:39:06.298Z,1015.54
2019-05-16T05:39:52.214Z,1015.53
2019-05-16T05:40:51.770Z,1015.54
2019-05-16T05:41:51.187Z,1015.56
2019-05-16T05:42:51.180Z,1015.50
2019-05-16T05:43:54.109Z,1015.53
2019-05-16T05:44:51.160Z,1015.51
2019-05-16T05:45:51.742Z,1015.50
2019-05-16T05:46:51.378Z,1015.54
2019-05-16T05:47:51.128Z,1015.51
2019-05-16T05:48:51.118Z,1015.53
2019-05-16T05:49:51.103Z,1015.52
2019-05-16T05:50:51.241Z,1015.54
2019-05-16T05:51:51.085Z,1015.54
2019-05-16T05:52:51.361Z,1015.48
2019-05-16T05:53:51.145Z,1015.51
2019-05-16T05:54:51.048Z,1015.55
2019-05-16T05:55:51.761Z,1015.47
2019-05-16T05:56:51.026Z,1015.50
2019-05-16T05:57:51.017Z,1015.47
2019-05-16T05:58:51.346Z,1015.51
2019-05-16T05:59:50.996Z,1015.44
2019-05-16T06:00:52.210Z,1015.47
2019-05-16T06:01:51.853Z,1015.49
2019-05-16T06:02:50.990Z,1015.53
2019-05-16T06:03:50.954Z,1015.50
2019-05-16T06:04:50.965Z,1015.49
2019-05-16T06:05:50.937Z,1015.49
2019-05-16T06:06:50.955Z,1015.54
2019-05-16T06:07:51.117Z,1015.48
2019-05-16T06:08:50.901Z,1015.52
2019-05-16T06:09:56.142Z,1015.51
2019-05-16T06:10:51.906Z,1015.51
2019-05-16T06:11:50.907Z,1015.51
2019-05-16T06:12:50.872Z,1015.47
2019-05-16T06:13:50.844Z,1015.45
2019-05-16T06:14:50.840Z,1015.46
2019-05-16T06:15:51.410Z,1015.50
2019-05-16T06:16:51.089Z,1015.49
2019-05-16T06:17:51.068Z,1015.47
2019-05-16T06:18:50.796Z,1015.49
2019-05-16T06:19:50.780Z,1015.45
2019-05-16T06:20:51.488Z,1015.52
2019-05-16T06:21:50.790Z,1015.47
2019-05-16T06:22:51.084Z,1015.46
2019-05-16T06:23:51.095Z,1015.44
2019-05-16T06:24:50.737Z,1015.45
2019-05-16T06:25:51.099Z,1015.41
2019-05-16T06:26:50.752Z,1015.47
2019-05-16T06:27:51.260Z,1015.39
2019-05-16T06:28:50.696Z,1015.40
2019-05-16T06:29:50.689Z,1015.36
2019-05-16T06:30:51.845Z,1015.39
2019-05-16T06:31:50.680Z,1015.32
2019-05-16T06:32:50.645Z,1015.37
2019-05-16T06:33:50.628Z,1015.36
2019-05-16T06:34:50.892Z,1015.34
2019-05-16T06:35:51.362Z,1015.34
2019-05-16T06:36:51.059Z,1015.29
2019-05-16T06:37:50.589Z,1015.31
2019-05-16T06:38:50.580Z,1015.22
2019-05-16T06:39:50.568Z,1015.24
2019-05-16T06:40:52.539Z,1015.26
2019-05-16T06:41:51.072Z,1015.30
2019-05-16T06:42:51.120Z,1015.24
2019-05-16T06:43:50.875Z,1015.24
2019-05-16T06:44:50.542Z,1015.27
2019-05-16T06:45:51.379Z,1015.22
2019-05-16T06:47:08.323Z,1015.22
2019-05-16T06:47:51.506Z,1015.19
2019-05-16T06:48:50.756Z,1015.16
2019-05-16T06:49:51.010Z,1015.21
2019-05-16T06:50:51.428Z,1015.16
2019-05-16T06:51:51.516Z,1015.20
2019-05-16T06:52:50.461Z,1015.21
2019-05-16T06:53:50.425Z,1015.18
2019-05-16T06:54:53.631Z,1015.18
2019-05-16T06:55:50.408Z,1015.14
2019-05-16T06:56:51.086Z,1015.22
2019-05-16T06:57:50.522Z,1015.13
2019-05-16T06:58:52.030Z,1015.16
2019-05-16T06:59:50.359Z,1015.16
2019-05-16T07:00:52.361Z,1015.18
2019-05-16T07:01:50.340Z,1015.17
2019-05-16T07:02:50.360Z,1015.15
2019-05-16T07:03:50.787Z,1015.13
2019-05-16T07:04:50.729Z,1015.17
2019-05-16T07:05:50.718Z,1015.15
2019-05-16T07:06:58.790Z,1015.17
2019-05-16T07:07:51.292Z,1015.19
2019-05-16T07:08:50.938Z,1015.21
2019-05-16T07:10:00.035Z,1015.17
2019-05-16T07:10:51.284Z,1015.21
2019-05-16T07:11:50.541Z,1015.17
2019-05-16T07:12:50.566Z,1015.18
2019-05-16T07:13:51.957Z,1015.15
2019-05-16T07:14:50.649Z,1015.15
2019-05-16T07:15:50.503Z,1015.12
2019-05-16T07:16:50.167Z,1015.12
2019-05-16T07:17:50.754Z,1015.08
2019-05-16T07:18:50.764Z,1015.13
2019-05-16T07:19:50.402Z,1015.15
2019-05-16T07:20:51.197Z,1015.12
2019-05-16T07:21:50.830Z,1015.17
2019-05-16T07:22:50.429Z,1015.12
2019-05-16T07:23:51.193Z,1015.08
2019-05-16T07:24:50.563Z,1015.12
2019-05-16T07:25:50.651Z,1015.05
2019-05-16T07:26:50.351Z,1015.07
2019-05-16T07:27:51.028Z,1015.07
2019-05-16T07:28:51.558Z,1015.07
2019-05-16T07:29:50.789Z,1015.06
2019-05-16T07:30:50.339Z,1015.05
2019-05-16T07:31:52.242Z,1015.07
2019-05-16T07:32:50.208Z,1015.04
2019-05-16T07:33:50.345Z,1015.03
2019-05-16T07:34:50.022Z,1015.00
2019-05-16T07:35:51.330Z,1015.02
2019-05-16T07:36:50.291Z,1014.95
2019-05-16T07:37:50.148Z,1014.96
2019-05-16T07:38:50.701Z,1014.89
2019-05-16T07:39:51.206Z,1014.87
2019-05-16T07:40:51.060Z,1014.90
2019-05-16T07:41:50.862Z,1014.85
2019-05-16T07:42:50.964Z,1014.88
2019-05-16T07:43:50.530Z,1014.86
2019-05-16T07:44:50.629Z,1014.81
2019-05-16T07:45:51.322Z,1014.85
2019-05-16T07:46:51.513Z,1014.83
2019-05-16T07:47:50.908Z,1014.79
2019-05-16T07:48:51.915Z,1014.81
2019-05-16T07:49:50.248Z,1014.77
2019-05-16T07:50:50.173Z,1014.73
2019-05-16T07:51:49.990Z,1014.81
2019-05-16T07:52:51.053Z,1014.74
2019-05-16T07:53:50.514Z,1014.75
2019-05-16T07:54:50.731Z,1014.74
2019-05-16T07:55:50.926Z,1014.74
2019-05-16T07:56:58.207Z,1014.70
2019-05-16T07:57:50.849Z,1014.74
2019-05-16T07:58:50.683Z,1014.75
2019-05-16T07:59:50.664Z,1014.77
2019-05-16T08:01:01.888Z,1014.71
2019-05-16T08:01:53.874Z,1014.75
2019-05-16T08:02:50.611Z,1014.67
2019-05-16T08:03:50.903Z,1014.73
2019-05-16T08:04:50.311Z,1014.69
2019-05-16T08:05:51.529Z,1014.68
2019-05-16T08:06:50.209Z,1014.66
2019-05-16T08:07:51.235Z,1014.71
2019-05-16T08:08:50.894Z,1014.69
2019-05-16T08:09:50.567Z,1014.72
2019-05-16T08:10:50.978Z,1014.71
2019-05-16T08:11:50.134Z,1014.66
2019-05-16T08:12:51.266Z,1014.67
2019-05-16T08:13:50.719Z,1014.64
2019-05-16T08:14:50.267Z,1014.65
2019-05-16T08:15:50.547Z,1014.62
2019-05-16T08:16:50.263Z,1014.60
2019-05-16T08:17:51.066Z,1014.67
2019-05-16T08:18:50.634Z,1014.67
2019-05-16T08:19:50.624Z,1014.64
2019-05-16T08:20:52.262Z,1014.61
2019-05-16T08:21:50.533Z,1014.56
2019-05-16T08:22:50.772Z,1014.61
2019-05-16T08:23:50.358Z,1014.53
2019-05-16T08:24:50.510Z,1014.54
2019-05-16T08:25:50.681Z,1014.54
2019-05-16T08:26:51.394Z,1014.56
2019-05-16T08:27:52.025Z,1014.56
2019-05-16T08:28:50.373Z,1014.56
2019-05-16T08:29:51.382Z,1014.54
2019-05-16T08:31:52.759Z,1014.51
2019-05-16T08:32:52.785Z,1014.60
2019-05-16T08:34:51.403Z,1014.58
2019-05-16T08:35:51.475Z,1014.60
2019-05-16T08:36:51.886Z,1014.57
2019-05-16T08:37:51.538Z,1014.52
2019-05-16T08:39:50.955Z,1014.55
2019-05-16T08:41:06.420Z,1014.57
2019-05-16T08:42:51.938Z,1014.51
2019-05-16T08:43:53.139Z,1014.58
2019-05-16T08:44:51.711Z,1014.55
2019-05-16T08:45:51.641Z,1014.52
2019-05-16T08:46:54.785Z,1014.56
2019-05-16T08:47:52.577Z,1014.46
2019-05-16T08:48:54.015Z,1014.46
2019-05-16T08:49:52.181Z,1014.49
2019-05-16T08:50:05.378Z,1014.58
2019-05-16T08:50:53.891Z,1014.45
2019-05-16T08:51:52.903Z,1014.47
2019-05-16T08:52:52.890Z,1014.51
2019-05-16T08:53:50.529Z,1014.50
2019-05-16T08:54:51.062Z,1014.49
2019-05-16T08:55:50.600Z,1014.47
2019-05-16T08:56:50.995Z,1014.48
2019-05-16T08:57:52.928Z,1014.44
2019-05-16T08:58:54.035Z,1014.40
2019-05-16T08:59:52.366Z,1014.41
2019-05-16T09:00:54.692Z,1014.35
2019-05-16T09:01:57.398Z,1014.32
2019-05-16T09:02:52.442Z,1014.34
2019-05-16T09:03:51.667Z,1014.29
2019-05-16T09:04:53.072Z,1014.30
2019-05-16T09:05:53.028Z,1014.25
2019-05-16T09:06:52.347Z,1014.26
2019-05-16T09:07:48.968Z,1014.30
2019-05-16T09:08:48.959Z,1014.27
2019-05-16T09:09:51.804Z,1014.19
2019-05-16T09:10:20.788Z,1014.56
2019-05-16T09:10:31.600Z,1014.55
2019-05-16T09:10:34.528Z,1014.58
2019-05-16T09:11:00.102Z,1014.23
2019-05-16T09:11:49.951Z,1014.24
2019-05-16T09:12:48.918Z,1014.21
2019-05-16T09:13:48.903Z,1014.28
2019-05-16T09:14:48.899Z,1014.23
2019-05-16T09:15:48.899Z,1014.24
2019-05-16T09:16:48.911Z,1014.24
2019-05-16T09:17:48.866Z,1014.24
2019-05-16T09:18:50.943Z,1014.21
2019-05-16T09:19:48.837Z,1014.23
2019-05-16T09:20:50.356Z,1014.20
2019-05-16T09:21:48.844Z,1014.29
2019-05-16T09:22:48.804Z,1014.24
2019-05-16T09:23:48.799Z,1014.30
2019-05-16T09:24:48.786Z,1014.25
2019-05-16T09:25:49.374Z,1014.24
2019-05-16T09:26:48.800Z,1014.21
2019-05-16T09:27:48.751Z,1014.13
2019-05-16T09:28:48.767Z,1014.13
2019-05-16T09:29:48.732Z,1014.21
2019-05-16T09:30:48.719Z,1014.20
2019-05-16T09:32:07.084Z,1014.21
2019-05-16T09:32:49.703Z,1014.16
2019-05-16T09:33:48.685Z,1014.18
2019-05-16T09:34:48.692Z,1014.21
2019-05-16T09:35:48.664Z,1014.13
2019-05-16T09:36:48.690Z,1014.12
2019-05-16T09:37:48.647Z,1014.22
2019-05-16T09:38:48.915Z,1014.19
2019-05-16T09:39:48.620Z,1014.27
2019-05-16T09:40:48.619Z,1014.26
2019-05-16T09:41:54.462Z,1014.17
2019-05-16T09:42:49.623Z,1014.20
2019-05-16T09:43:49.122Z,1014.24
2019-05-16T09:44:48.567Z,1014.22
2019-05-16T09:45:48.561Z,1014.16
2019-05-16T09:46:48.578Z,1014.13
2019-05-16T09:47:48.769Z,1014.08
2019-05-16T09:48:48.528Z,1014.11
2019-05-16T09:49:48.521Z,1014.08
2019-05-16T09:50:48.502Z,1014.07
2019-05-16T09:51:48.510Z,1014.11
2019-05-16T09:52:48.515Z,1014.06
2019-05-16T09:53:48.473Z,1014.07
2019-05-16T09:54:48.472Z,1014.02
2019-05-16T09:55:48.460Z,1014.06
2019-05-16T09:56:48.443Z,1014.03
2019-05-16T09:57:48.479Z,1014.07
2019-05-16T09:58:48.427Z,1014.08
2019-05-16T09:59:48.416Z,1014.08
2019-05-16T10:00:48.399Z,1013.96
2019-05-16T10:01:48.398Z,1014.02
2019-05-16T10:02:48.502Z,1013.99
2019-05-16T10:03:48.367Z,1013.99
2019-05-16T10:04:48.355Z,1013.99
2019-05-16T10:05:48.345Z,1014.03
2019-05-16T10:06:48.342Z,1014.04
2019-05-16T10:07:48.328Z,1014.03
2019-05-16T10:08:48.342Z,1014.01
2019-05-16T10:09:50.302Z,1013.97
2019-05-16T10:10:48.291Z,1013.99
2019-05-16T10:11:50.851Z,1014.00
2019-05-16T10:12:49.302Z,1013.97
2019-05-16T10:13:48.294Z,1013.94
2019-05-16T10:14:48.243Z,1013.92
2019-05-16T10:15:48.241Z,1013.91
2019-05-16T10:16:48.230Z,1013.92
2019-05-16T10:17:48.242Z,1013.87
2019-05-16T10:18:48.209Z,1013.88
2019-05-16T10:19:48.195Z,1013.78
2019-05-16T10:20:48.188Z,1013.80
2019-05-16T10:21:48.176Z,1013.83
2019-05-16T10:22:50.597Z,1013.76
2019-05-16T10:23:48.170Z,1013.80
2019-05-16T10:24:48.143Z,1013.71
2019-05-16T10:25:48.322Z,1013.77
2019-05-16T10:26:53.557Z,1013.69
2019-05-16T10:27:49.105Z,1013.72
2019-05-16T10:28:48.133Z,1013.69
2019-05-16T10:29:48.554Z,1013.74
2019-05-16T10:30:50.177Z,1013.71
2019-05-16T10:31:52.618Z,1013.63
2019-05-16T10:32:49.053Z,1013.63
2019-05-16T10:33:48.065Z,1013.59
2019-05-16T10:34:48.035Z,1013.58
2019-05-16T10:35:48.280Z,1013.60
2019-05-16T10:36:48.014Z,1013.63
2019-05-16T10:37:48.000Z,1013.66
2019-05-16T10:38:48.575Z,1013.59
2019-05-16T10:39:47.975Z,1013.60
2019-05-16T10:40:47.965Z,1013.62
2019-05-16T10:41:47.958Z,1013.59
2019-05-16T10:42:47.962Z,1013.63
2019-05-16T10:43:47.975Z,1013.56
2019-05-16T10:44:48.585Z,1013.54
2019-05-16T10:45:47.911Z,1013.55
2019-05-16T10:46:48.144Z,1013.55
2019-05-16T10:47:48.249Z,1013.52
2019-05-16T10:48:47.901Z,1013.57
2019-05-16T10:49:47.881Z,1013.57
2019-05-16T10:50:48.084Z,1013.51
2019-05-16T10:51:47.867Z,1013.49
2019-05-16T10:53:07.019Z,1013.48
2019-05-16T10:54:13.052Z,1013.46
2019-05-16T10:54:57.438Z,1013.41
2019-05-16T10:55:48.805Z,1013.42
2019-05-16T10:56:47.894Z,1013.45
2019-05-16T10:57:47.963Z,1013.36
2019-05-16T10:59:21.586Z,1013.38
2019-05-16T11:00:05.140Z,1013.34
2019-05-16T11:01:11.015Z,1013.34
2019-05-16T11:01:48.735Z,1013.36
2019-05-16T11:02:47.804Z,1013.32
2019-05-16T11:03:49.229Z,1013.30
2019-05-16T11:05:00.226Z,1013.30
2019-05-16T11:06:01.307Z,1013.29
2019-05-16T11:06:48.698Z,1013.33
2019-05-16T11:07:49.399Z,1013.33
2019-05-16T11:08:47.667Z,1013.25
2019-05-16T11:09:57.943Z,1013.23
2019-05-16T11:10:48.648Z,1013.21
2019-05-16T11:11:47.839Z,1013.26
2019-05-16T11:12:54.931Z,1013.25
2019-05-16T11:13:51.081Z,1013.13
2019-05-16T11:14:47.897Z,1013.21
2019-05-16T11:15:47.594Z,1013.22
2019-05-16T11:16:47.589Z,1013.27
2019-05-16T11:17:47.569Z,1013.19
2019-05-16T11:18:47.571Z,1013.23
2019-05-16T11:19:47.569Z,1013.12
2019-05-16T11:20:49.170Z,1013.18
2019-05-16T11:21:47.528Z,1013.14
2019-05-16T11:22:47.882Z,1013.11
2019-05-16T11:23:47.507Z,1013.13
2019-05-16T11:24:47.548Z,1013.11
2019-05-16T11:25:47.495Z,1013.06
2019-05-16T11:26:47.538Z,1013.00
2019-05-16T11:27:47.458Z,1013.05
2019-05-16T11:28:48.924Z,1013.06
2019-05-16T11:29:47.485Z,1013.05
2019-05-16T11:30:47.785Z,1013.01
2019-05-16T11:31:47.442Z,1013.03
2019-05-16T11:32:47.404Z,1013.00
2019-05-16T11:33:47.830Z,1013.04
2019-05-16T11:34:47.988Z,1013.00
2019-05-16T11:35:47.823Z,1012.99
2019-05-16T11:36:47.921Z,1013.01
2019-05-16T11:37:47.416Z,1013.00
2019-05-16T11:38:47.703Z,1013.02
2019-05-16T11:39:47.328Z,1012.99
2019-05-16T11:40:47.719Z,1013.02
2019-05-16T11:41:47.635Z,1013.04
2019-05-16T11:43:03.797Z,1012.99
2019-05-16T11:43:48.293Z,1012.97
2019-05-16T11:44:47.905Z,1012.95
2019-05-16T11:45:47.285Z,1012.89
2019-05-16T11:46:48.984Z,1012.90
2019-05-16T11:47:47.250Z,1012.87
2019-05-16T11:48:48.906Z,1012.92
2019-05-16T11:49:47.720Z,1012.88
2019-05-16T11:50:48.013Z,1012.90
2019-05-16T11:51:47.481Z,1012.79
2019-05-16T11:52:47.611Z,1012.88
2019-05-16T11:53:47.679Z,1012.79
2019-05-16T11:54:47.167Z,1012.80
2019-05-16T11:55:54.481Z,1012.84
2019-05-16T11:56:48.146Z,1012.86
2019-05-16T11:57:47.720Z,1012.88
2019-05-16T11:58:47.419Z,1012.81
2019-05-16T11:59:47.215Z,1012.85
2019-05-16T12:00:48.263Z,1012.77
2019-05-16T12:01:47.640Z,1012.78
2019-05-16T12:02:47.936Z,1012.75
2019-05-16T12:03:47.069Z,1012.64
2019-05-16T12:04:47.367Z,1012.57
2019-05-16T12:05:47.993Z,1012.56